Struer, Denmark
Current Conditions -  °F | °C
As of 10:04 AM on Friday 24 Oct 2014 (Local Time) from EKKA Reporting Station
Light Rain Light Rain  
Wind Chill: 55°   Ceiling: 500
Heat Index: 55°   Visibility: 2.1mi
Dew Point: 54°   Wind: 12mph
Humidity: 94%   Direction: 180°S
Pressure: 29.97"   Gusts: NA
Location:  56.49°N, 8.58°E
Report Text: EKKA 240804Z 18010KT 150V210 3500 -DZRA BR SCT004 BKN00513/12 Q1015 TEMPO 2500 BKN003
Loading
Personal Weather Stations






























Interactive Weather Map
Tropical Storm Tracking
New forecast layout! Learn more

10-Day Weather Forecast

Advertisements
Track Severe Weather on mobile